sensor_id;sensor_type;location;lat;lon;timestamp;P1;durP1;ratioP1;P2;durP2;ratioP2
72394;SDS011;60384;48.152;11.614;2022-07-04T00:01:27;4.80;;;3.00;;
72394;SDS011;60384;48.152;11.614;2022-07-04T00:04:27;5.20;;;2.60;;
72394;SDS011;60384;48.152;11.614;2022-07-04T00:07:27;7.57;;;3.40;;
72394;SDS011;60384;48.152;11.614;2022-07-04T00:10:28;5.53;;;2.90;;
72394;SDS011;60384;48.152;11.614;2022-07-04T00:13:28;5.00;;;2.67;;
72394;SDS011;60384;48.152;11.614;2022-07-04T00:16:29;6.93;;;2.80;;
72394;SDS011;60384;48.152;11.614;2022-07-04T00:19:30;4.60;;;2.60;;
72394;SDS011;60384;48.152;11.614;2022-07-04T00:22:30;4.03;;;2.70;;
72394;SDS011;60384;48.152;11.614;2022-07-04T00:25:31;6.17;;;3.03;;
72394;SDS011;60384;48.152;11.614;2022-07-04T00:28:31;6.17;;;2.90;;
72394;SDS011;60384;48.152;11.614;2022-07-04T00:31:31;6.07;;;2.90;;
72394;SDS011;60384;48.152;11.614;2022-07-04T00:34:32;5.07;;;2.70;;
72394;SDS011;60384;48.152;11.614;2022-07-04T00:37:32;6.47;;;2.87;;
72394;SDS011;60384;48.152;11.614;2022-07-04T00:40:33;4.57;;;2.70;;
72394;SDS011;60384;48.152;11.614;2022-07-04T00:43:33;4.40;;;2.73;;
72394;SDS011;60384;48.152;11.614;2022-07-04T00:46:34;4.23;;;2.63;;
72394;SDS011;60384;48.152;11.614;2022-07-04T00:49:34;3.23;;;2.30;;
72394;SDS011;60384;48.152;11.614;2022-07-04T00:52:35;5.57;;;2.73;;
72394;SDS011;60384;48.152;11.614;2022-07-04T00:55:35;5.17;;;2.70;;
72394;SDS011;60384;48.152;11.614;2022-07-04T00:58:37;4.45;;;2.60;;
72394;SDS011;60384;48.152;11.614;2022-07-04T01:01:38;4.83;;;2.80;;
72394;SDS011;60384;48.152;11.614;2022-07-04T01:04:39;5.50;;;2.43;;
72394;SDS011;60384;48.152;11.614;2022-07-04T01:07:39;4.25;;;2.38;;
72394;SDS011;60384;48.152;11.614;2022-07-04T01:10:40;5.10;;;2.60;;
72394;SDS011;60384;48.152;11.614;2022-07-04T01:13:41;4.20;;;2.40;;
72394;SDS011;60384;48.152;11.614;2022-07-04T01:19:42;4.63;;;2.60;;
72394;SDS011;60384;48.152;11.614;2022-07-04T01:22:43;5.57;;;2.50;;
72394;SDS011;60384;48.152;11.614;2022-07-04T01:25:43;6.07;;;2.50;;
72394;SDS011;60384;48.152;11.614;2022-07-04T01:28:43;4.90;;;2.60;;
72394;SDS011;60384;48.152;11.614;2022-07-04T01:31:44;3.85;;;2.40;;
72394;SDS011;60384;48.152;11.614;2022-07-04T01:34:44;4.27;;;2.33;;
72394;SDS011;60384;48.152;11.614;2022-07-04T01:37:45;6.07;;;2.72;;
72394;SDS011;60384;48.152;11.614;2022-07-04T01:40:45;5.93;;;2.53;;
72394;SDS011;60384;48.152;11.614;2022-07-04T01:43:46;3.93;;;2.40;;
72394;SDS011;60384;48.152;11.614;2022-07-04T01:46:46;5.87;;;2.40;;
72394;SDS011;60384;48.152;11.614;2022-07-04T01:49:47;5.10;;;2.45;;
72394;SDS011;60384;48.152;11.614;2022-07-04T01:52:47;6.03;;;2.63;;
72394;SDS011;60384;48.152;11.614;2022-07-04T01:55:48;5.03;;;2.50;;
72394;SDS011;60384;48.152;11.614;2022-07-04T01:58:48;5.70;;;2.45;;
72394;SDS011;60384;48.152;11.614;2022-07-04T02:01:48;6.73;;;2.73;;
72394;SDS011;60384;48.152;11.614;2022-07-04T02:04:49;5.22;;;2.67;;
72394;SDS011;60384;48.152;11.614;2022-07-04T02:07:50;5.97;;;2.90;;
72394;SDS011;60384;48.152;11.614;2022-07-04T02:10:51;4.57;;;2.55;;
72394;SDS011;60384;48.152;11.614;2022-07-04T02:13:51;4.30;;;2.43;;
72394;SDS011;60384;48.152;11.614;2022-07-04T02:16:51;4.67;;;2.60;;
72394;SDS011;60384;48.152;11.614;2022-07-04T02:19:52;5.50;;;2.30;;
72394;SDS011;60384;48.152;11.614;2022-07-04T02:22:52;6.30;;;2.73;;
72394;SDS011;60384;48.152;11.614;2022-07-04T02:25:52;5.67;;;2.70;;
72394;SDS011;60384;48.152;11.614;2022-07-04T02:28:53;4.97;;;2.50;;
72394;SDS011;60384;48.152;11.614;2022-07-04T02:31:53;4.40;;;2.70;;
72394;SDS011;60384;48.152;11.614;2022-07-04T02:34:53;4.53;;;2.47;;
72394;SDS011;60384;48.152;11.614;2022-07-04T02:37:54;5.13;;;2.97;;
72394;SDS011;60384;48.152;11.614;2022-07-04T02:40:54;5.13;;;2.43;;
72394;SDS011;60384;48.152;11.614;2022-07-04T02:43:55;5.78;;;2.97;;
72394;SDS011;60384;48.152;11.614;2022-07-04T02:46:55;5.10;;;2.60;;
72394;SDS011;60384;48.152;11.614;2022-07-04T02:49:55;6.30;;;2.72;;
72394;SDS011;60384;48.152;11.614;2022-07-04T02:52:56;4.67;;;2.57;;
72394;SDS011;60384;48.152;11.614;2022-07-04T02:55:57;3.97;;;2.30;;
72394;SDS011;60384;48.152;11.614;2022-07-04T02:58:57;4.97;;;2.53;;
72394;SDS011;60384;48.152;11.614;2022-07-04T03:01:57;5.05;;;2.50;;
72394;SDS011;60384;48.152;11.614;2022-07-04T03:04:58;4.03;;;2.17;;
72394;SDS011;60384;48.152;11.614;2022-07-04T03:07:58;4.38;;;2.22;;
72394;SDS011;60384;48.152;11.614;2022-07-04T03:10:58;4.97;;;2.50;;
72394;SDS011;60384;48.152;11.614;2022-07-04T03:13:59;4.20;;;2.30;;
72394;SDS011;60384;48.152;11.614;2022-07-04T03:16:59;4.13;;;2.40;;
72394;SDS011;60384;48.152;11.614;2022-07-04T03:20:00;4.30;;;2.40;;
72394;SDS011;60384;48.152;11.614;2022-07-04T03:23:00;5.35;;;2.70;;
72394;SDS011;60384;48.152;11.614;2022-07-04T03:26:01;5.05;;;2.75;;
72394;SDS011;60384;48.152;11.614;2022-07-04T03:29:01;3.70;;;2.30;;
72394;SDS011;60384;48.152;11.614;2022-07-04T03:32:02;4.88;;;2.40;;
72394;SDS011;60384;48.152;11.614;2022-07-04T03:35:03;9.10;;;2.50;;
72394;SDS011;60384;48.152;11.614;2022-07-04T03:38:04;5.77;;;2.83;;
72394;SDS011;60384;48.152;11.614;2022-07-04T03:41:04;4.68;;;2.55;;
72394;SDS011;60384;48.152;11.614;2022-07-04T03:44:04;4.72;;;2.42;;
72394;SDS011;60384;48.152;11.614;2022-07-04T03:47:05;3.42;;;2.33;;
72394;SDS011;60384;48.152;11.614;2022-07-04T03:50:05;4.53;;;2.50;;
72394;SDS011;60384;48.152;11.614;2022-07-04T03:53:06;4.60;;;2.73;;
72394;SDS011;60384;48.152;11.614;2022-07-04T03:56:07;4.63;;;2.60;;
72394;SDS011;60384;48.152;11.614;2022-07-04T03:59:08;4.20;;;2.47;;
72394;SDS011;60384;48.152;11.614;2022-07-04T04:02:08;5.13;;;2.40;;
72394;SDS011;60384;48.152;11.614;2022-07-04T04:05:08;4.73;;;2.50;;
72394;SDS011;60384;48.152;11.614;2022-07-04T04:08:27;5.30;;;2.75;;
72394;SDS011;60384;48.152;11.614;2022-07-04T04:11:27;5.03;;;2.60;;
72394;SDS011;60384;48.152;11.614;2022-07-04T04:14:28;6.25;;;2.88;;
72394;SDS011;60384;48.152;11.614;2022-07-04T04:17:28;6.97;;;2.63;;
72394;SDS011;60384;48.152;11.614;2022-07-04T04:20:29;6.00;;;2.42;;
72394;SDS011;60384;48.152;11.614;2022-07-04T04:23:29;5.60;;;2.70;;
72394;SDS011;60384;48.152;11.614;2022-07-04T04:26:30;4.80;;;2.60;;
72394;SDS011;60384;48.152;11.614;2022-07-04T04:29:30;5.73;;;2.63;;
72394;SDS011;60384;48.152;11.614;2022-07-04T04:32:30;5.30;;;2.93;;
72394;SDS011;60384;48.152;11.614;2022-07-04T04:35:31;5.68;;;2.97;;
72394;SDS011;60384;48.152;11.614;2022-07-04T04:38:31;4.17;;;2.57;;
72394;SDS011;60384;48.152;11.614;2022-07-04T04:41:32;6.05;;;2.70;;
72394;SDS011;60384;48.152;11.614;2022-07-04T04:44:32;5.88;;;2.75;;
72394;SDS011;60384;48.152;11.614;2022-07-04T04:47:33;4.23;;;2.33;;
72394;SDS011;60384;48.152;11.614;2022-07-04T04:50:33;4.17;;;2.50;;
72394;SDS011;60384;48.152;11.614;2022-07-04T04:53:34;7.35;;;2.75;;
72394;SDS011;60384;48.152;11.614;2022-07-04T04:56:35;3.88;;;2.30;;
72394;SDS011;60384;48.152;11.614;2022-07-04T04:59:35;7.00;;;2.87;;
72394;SDS011;60384;48.152;11.614;2022-07-04T05:02:36;4.40;;;2.65;;
72394;SDS011;60384;48.152;11.614;2022-07-04T05:05:36;5.40;;;2.87;;
72394;SDS011;60384;48.152;11.614;2022-07-04T05:08:36;6.53;;;3.07;;
72394;SDS011;60384;48.152;11.614;2022-07-04T05:11:37;5.37;;;2.80;;
72394;SDS011;60384;48.152;11.614;2022-07-04T05:14:37;5.43;;;2.70;;
72394;SDS011;60384;48.152;11.614;2022-07-04T05:17:37;3.57;;;2.50;;
72394;SDS011;60384;48.152;11.614;2022-07-04T05:20:38;5.63;;;2.90;;
72394;SDS011;60384;48.152;11.614;2022-07-04T05:23:39;5.07;;;2.70;;
72394;SDS011;60384;48.152;11.614;2022-07-04T05:26:39;3.93;;;2.40;;
72394;SDS011;60384;48.152;11.614;2022-07-04T05:29:40;4.77;;;2.30;;
72394;SDS011;60384;48.152;11.614;2022-07-04T05:32:40;4.53;;;2.38;;
72394;SDS011;60384;48.152;11.614;2022-07-04T05:35:40;5.60;;;3.27;;
72394;SDS011;60384;48.152;11.614;2022-07-04T05:38:41;5.37;;;2.73;;
72394;SDS011;60384;48.152;11.614;2022-07-04T05:41:41;5.00;;;2.80;;
72394;SDS011;60384;48.152;11.614;2022-07-04T05:44:42;7.40;;;3.00;;
72394;SDS011;60384;48.152;11.614;2022-07-04T05:47:42;5.53;;;2.87;;
72394;SDS011;60384;48.152;11.614;2022-07-04T05:50:44;7.70;;;2.80;;
72394;SDS011;60384;48.152;11.614;2022-07-04T05:53:44;5.23;;;2.37;;
72394;SDS011;60384;48.152;11.614;2022-07-04T05:56:45;4.30;;;2.30;;
72394;SDS011;60384;48.152;11.614;2022-07-04T05:59:45;7.30;;;2.60;;
72394;SDS011;60384;48.152;11.614;2022-07-04T06:02:45;5.37;;;2.33;;
72394;SDS011;60384;48.152;11.614;2022-07-04T06:05:46;5.03;;;2.40;;
72394;SDS011;60384;48.152;11.614;2022-07-04T06:08:46;5.97;;;2.77;;
72394;SDS011;60384;48.152;11.614;2022-07-04T06:11:47;5.57;;;2.67;;
72394;SDS011;60384;48.152;11.614;2022-07-04T06:14:47;4.57;;;2.47;;
72394;SDS011;60384;48.152;11.614;2022-07-04T06:17:47;4.67;;;2.40;;
72394;SDS011;60384;48.152;11.614;2022-07-04T06:20:48;4.38;;;2.40;;
72394;SDS011;60384;48.152;11.614;2022-07-04T06:23:48;4.57;;;2.27;;
72394;SDS011;60384;48.152;11.614;2022-07-04T06:26:48;4.82;;;2.38;;
72394;SDS011;60384;48.152;11.614;2022-07-04T06:29:49;4.70;;;2.22;;
72394;SDS011;60384;48.152;11.614;2022-07-04T06:32:53;3.53;;;2.33;;
72394;SDS011;60384;48.152;11.614;2022-07-04T06:35:55;4.80;;;2.00;;
72394;SDS011;60384;48.152;11.614;2022-07-04T06:38:55;4.90;;;2.23;;
72394;SDS011;60384;48.152;11.614;2022-07-04T06:41:56;3.53;;;2.13;;
72394;SDS011;60384;48.152;11.614;2022-07-04T06:44:56;5.10;;;2.27;;
72394;SDS011;60384;48.152;11.614;2022-07-04T06:47:56;4.63;;;2.30;;
72394;SDS011;60384;48.152;11.614;2022-07-04T06:50:57;5.13;;;2.40;;
72394;SDS011;60384;48.152;11.614;2022-07-04T06:53:57;4.73;;;2.67;;
72394;SDS011;60384;48.152;11.614;2022-07-04T06:56:58;3.13;;;1.90;;
72394;SDS011;60384;48.152;11.614;2022-07-04T06:59:59;6.78;;;2.60;;
72394;SDS011;60384;48.152;11.614;2022-07-04T07:03:00;4.05;;;2.13;;
72394;SDS011;60384;48.152;11.614;2022-07-04T07:06:02;5.97;;;2.22;;
72394;SDS011;60384;48.152;11.614;2022-07-04T07:09:03;4.77;;;2.13;;
72394;SDS011;60384;48.152;11.614;2022-07-04T07:12:03;6.27;;;2.43;;
72394;SDS011;60384;48.152;11.614;2022-07-04T07:15:04;4.00;;;2.38;;
72394;SDS011;60384;48.152;11.614;2022-07-04T07:18:05;5.10;;;2.70;;
72394;SDS011;60384;48.152;11.614;2022-07-04T07:21:06;7.40;;;2.40;;
72394;SDS011;60384;48.152;11.614;2022-07-04T07:24:06;4.90;;;2.37;;
72394;SDS011;60384;48.152;11.614;2022-07-04T07:27:07;3.67;;;2.00;;
72394;SDS011;60384;48.152;11.614;2022-07-04T07:30:08;6.05;;;2.67;;
72394;SDS011;60384;48.152;11.614;2022-07-04T07:33:09;3.97;;;2.45;;
72394;SDS011;60384;48.152;11.614;2022-07-04T07:36:09;6.25;;;2.40;;
72394;SDS011;60384;48.152;11.614;2022-07-04T07:39:10;5.28;;;2.67;;
72394;SDS011;60384;48.152;11.614;2022-07-04T07:42:10;4.13;;;2.17;;
72394;SDS011;60384;48.152;11.614;2022-07-04T07:45:11;3.67;;;2.03;;
72394;SDS011;60384;48.152;11.614;2022-07-04T07:48:11;4.65;;;2.50;;
72394;SDS011;60384;48.152;11.614;2022-07-04T07:51:11;4.90;;;2.40;;
72394;SDS011;60384;48.152;11.614;2022-07-04T07:54:13;5.25;;;2.47;;
72394;SDS011;60384;48.152;11.614;2022-07-04T07:57:16;5.10;;;2.55;;
72394;SDS011;60384;48.152;11.614;2022-07-04T08:00:17;3.03;;;2.10;;
72394;SDS011;60384;48.152;11.614;2022-07-04T08:03:18;5.57;;;2.30;;
72394;SDS011;60384;48.152;11.614;2022-07-04T08:06:37;7.53;;;2.55;;
72394;SDS011;60384;48.152;11.614;2022-07-04T08:09:37;5.20;;;2.43;;
72394;SDS011;60384;48.152;11.614;2022-07-04T08:12:38;3.93;;;2.23;;
72394;SDS011;60384;48.152;11.614;2022-07-04T08:15:39;5.68;;;2.45;;
72394;SDS011;60384;48.152;11.614;2022-07-04T08:18:39;5.25;;;2.30;;
72394;SDS011;60384;48.152;11.614;2022-07-04T08:21:41;4.93;;;2.33;;
72394;SDS011;60384;48.152;11.614;2022-07-04T08:24:41;4.32;;;2.08;;
72394;SDS011;60384;48.152;11.614;2022-07-04T08:27:42;4.00;;;2.17;;
72394;SDS011;60384;48.152;11.614;2022-07-04T08:30:43;3.85;;;2.08;;
72394;SDS011;60384;48.152;11.614;2022-07-04T08:33:43;3.58;;;2.03;;
72394;SDS011;60384;48.152;11.614;2022-07-04T08:36:44;7.10;;;2.13;;
72394;SDS011;60384;48.152;11.614;2022-07-04T08:39:45;5.40;;;2.55;;
72394;SDS011;60384;48.152;11.614;2022-07-04T08:42:45;4.40;;;2.35;;
72394;SDS011;60384;48.152;11.614;2022-07-04T08:45:46;3.20;;;2.00;;
72394;SDS011;60384;48.152;11.614;2022-07-04T08:51:54;5.35;;;2.50;;
72394;SDS011;60384;48.152;11.614;2022-07-04T08:55:06;3.40;;;1.80;;
72394;SDS011;60384;48.152;11.614;2022-07-04T08:58:26;5.85;;;2.30;;
72394;SDS011;60384;48.152;11.614;2022-07-04T09:01:30;6.30;;;2.10;;
72394;SDS011;60384;48.152;11.614;2022-07-04T09:04:32;5.75;;;1.83;;
72394;SDS011;60384;48.152;11.614;2022-07-04T09:07:33;7.70;;;2.53;;
72394;SDS011;60384;48.152;11.614;2022-07-04T09:10:33;4.40;;;2.07;;
72394;SDS011;60384;48.152;11.614;2022-07-04T09:13:35;4.32;;;2.10;;
72394;SDS011;60384;48.152;11.614;2022-07-04T09:16:35;2.90;;;1.77;;
72394;SDS011;60384;48.152;11.614;2022-07-04T09:19:36;5.30;;;2.27;;
72394;SDS011;60384;48.152;11.614;2022-07-04T09:22:37;4.50;;;1.97;;
72394;SDS011;60384;48.152;11.614;2022-07-04T09:25:37;4.63;;;2.40;;
72394;SDS011;60384;48.152;11.614;2022-07-04T09:28:38;4.50;;;2.20;;
72394;SDS011;60384;48.152;11.614;2022-07-04T09:31:40;3.50;;;1.90;;
72394;SDS011;60384;48.152;11.614;2022-07-04T09:34:53;5.33;;;1.87;;
72394;SDS011;60384;48.152;11.614;2022-07-04T09:37:56;3.25;;;1.90;;
72394;SDS011;60384;48.152;11.614;2022-07-04T09:40:59;2.47;;;1.60;;
72394;SDS011;60384;48.152;11.614;2022-07-04T09:44:19;3.33;;;2.08;;
72394;SDS011;60384;48.152;11.614;2022-07-04T09:47:21;3.17;;;1.90;;
72394;SDS011;60384;48.152;11.614;2022-07-04T09:50:24;2.95;;;2.17;;
72394;SDS011;60384;48.152;11.614;2022-07-04T09:53:27;2.50;;;1.65;;
72394;SDS011;60384;48.152;11.614;2022-07-04T09:56:40;6.00;;;2.03;;
72394;SDS011;60384;48.152;11.614;2022-07-04T09:59:41;4.55;;;1.95;;
72394;SDS011;60384;48.152;11.614;2022-07-04T10:02:41;3.43;;;1.90;;
72394;SDS011;60384;48.152;11.614;2022-07-04T10:05:42;2.50;;;1.73;;
72394;SDS011;60384;48.152;11.614;2022-07-04T10:08:43;2.47;;;1.53;;
72394;SDS011;60384;48.152;11.614;2022-07-04T10:11:45;3.03;;;1.80;;
72394;SDS011;60384;48.152;11.614;2022-07-04T10:14:46;3.90;;;1.65;;
72394;SDS011;60384;48.152;11.614;2022-07-04T10:17:47;2.17;;;1.67;;
72394;SDS011;60384;48.152;11.614;2022-07-04T10:20:49;3.30;;;1.83;;
72394;SDS011;60384;48.152;11.614;2022-07-04T10:23:50;3.38;;;1.58;;
72394;SDS011;60384;48.152;11.614;2022-07-04T10:26:51;4.50;;;1.93;;
72394;SDS011;60384;48.152;11.614;2022-07-04T10:29:53;3.60;;;1.85;;
72394;SDS011;60384;48.152;11.614;2022-07-04T10:32:54;2.47;;;1.67;;
72394;SDS011;60384;48.152;11.614;2022-07-04T10:36:00;2.13;;;1.55;;
72394;SDS011;60384;48.152;11.614;2022-07-04T10:39:03;2.83;;;1.90;;
72394;SDS011;60384;48.152;11.614;2022-07-04T10:42:04;2.65;;;1.70;;
72394;SDS011;60384;48.152;11.614;2022-07-04T10:45:06;2.83;;;1.80;;
72394;SDS011;60384;48.152;11.614;2022-07-04T10:48:08;3.25;;;1.70;;
72394;SDS011;60384;48.152;11.614;2022-07-04T10:51:09;3.70;;;2.00;;
72394;SDS011;60384;48.152;11.614;2022-07-04T10:57:21;2.88;;;1.80;;
72394;SDS011;60384;48.152;11.614;2022-07-04T11:00:22;2.92;;;1.63;;
72394;SDS011;60384;48.152;11.614;2022-07-04T11:03:23;3.43;;;1.73;;
72394;SDS011;60384;48.152;11.614;2022-07-04T11:09:32;3.65;;;1.85;;
72394;SDS011;60384;48.152;11.614;2022-07-04T11:12:32;4.23;;;2.10;;
72394;SDS011;60384;48.152;11.614;2022-07-04T11:16:04;2.78;;;1.70;;
72394;SDS011;60384;48.152;11.614;2022-07-04T11:19:05;3.42;;;1.90;;
72394;SDS011;60384;48.152;11.614;2022-07-04T11:22:06;3.87;;;2.13;;
72394;SDS011;60384;48.152;11.614;2022-07-04T11:25:09;3.97;;;1.88;;
72394;SDS011;60384;48.152;11.614;2022-07-04T11:31:44;4.05;;;1.80;;
72394;SDS011;60384;48.152;11.614;2022-07-04T11:34:47;2.97;;;1.80;;
72394;SDS011;60384;48.152;11.614;2022-07-04T11:37:55;3.70;;;1.77;;
72394;SDS011;60384;48.152;11.614;2022-07-04T11:40:57;2.47;;;1.75;;
72394;SDS011;60384;48.152;11.614;2022-07-04T11:44:17;3.50;;;1.70;;
72394;SDS011;60384;48.152;11.614;2022-07-04T11:47:39;2.10;;;1.60;;
72394;SDS011;60384;48.152;11.614;2022-07-04T11:50:42;4.05;;;1.83;;
72394;SDS011;60384;48.152;11.614;2022-07-04T11:53:42;3.13;;;1.80;;
72394;SDS011;60384;48.152;11.614;2022-07-04T11:56:43;3.13;;;1.50;;
72394;SDS011;60384;48.152;11.614;2022-07-04T11:59:48;2.50;;;1.53;;
72394;SDS011;60384;48.152;11.614;2022-07-04T12:02:52;2.38;;;1.60;;
72394;SDS011;60384;48.152;11.614;2022-07-04T12:06:01;2.65;;;1.50;;
72394;SDS011;60384;48.152;11.614;2022-07-04T12:09:05;2.40;;;1.50;;
72394;SDS011;60384;48.152;11.614;2022-07-04T12:12:06;3.23;;;1.80;;
72394;SDS011;60384;48.152;11.614;2022-07-04T12:15:07;3.40;;;1.90;;
72394;SDS011;60384;48.152;11.614;2022-07-04T12:18:26;4.23;;;1.90;;
72394;SDS011;60384;48.152;11.614;2022-07-04T12:21:31;4.88;;;2.10;;
72394;SDS011;60384;48.152;11.614;2022-07-04T12:24:41;4.30;;;1.93;;
72394;SDS011;60384;48.152;11.614;2022-07-04T12:27:42;3.28;;;1.85;;
72394;SDS011;60384;48.152;11.614;2022-07-04T12:30:52;3.13;;;1.90;;
72394;SDS011;60384;48.152;11.614;2022-07-04T12:33:56;5.63;;;1.70;;
72394;SDS011;60384;48.152;11.614;2022-07-04T12:36:57;2.73;;;1.80;;
72394;SDS011;60384;48.152;11.614;2022-07-04T12:39:58;2.80;;;1.98;;
72394;SDS011;60384;48.152;11.614;2022-07-04T12:43:07;4.00;;;2.13;;
72394;SDS011;60384;48.152;11.614;2022-07-04T12:46:08;3.57;;;2.00;;
72394;SDS011;60384;48.152;11.614;2022-07-04T12:49:13;3.78;;;1.90;;
72394;SDS011;60384;48.152;11.614;2022-07-04T12:52:17;2.90;;;1.83;;
72394;SDS011;60384;48.152;11.614;2022-07-04T12:55:18;3.33;;;2.08;;
72394;SDS011;60384;48.152;11.614;2022-07-04T12:58:18;4.80;;;2.37;;
72394;SDS011;60384;48.152;11.614;2022-07-04T13:01:19;5.00;;;2.37;;
72394;SDS011;60384;48.152;11.614;2022-07-04T13:04:19;4.63;;;2.00;;
72394;SDS011;60384;48.152;11.614;2022-07-04T13:07:20;5.47;;;2.47;;
72394;SDS011;60384;48.152;11.614;2022-07-04T13:10:20;2.77;;;2.00;;
72394;SDS011;60384;48.152;11.614;2022-07-04T13:13:21;3.33;;;1.90;;
72394;SDS011;60384;48.152;11.614;2022-07-04T13:16:21;3.17;;;1.90;;
72394;SDS011;60384;48.152;11.614;2022-07-04T13:19:22;3.27;;;1.80;;
72394;SDS011;60384;48.152;11.614;2022-07-04T13:22:22;5.60;;;2.30;;
72394;SDS011;60384;48.152;11.614;2022-07-04T13:25:23;5.22;;;1.95;;
72394;SDS011;60384;48.152;11.614;2022-07-04T13:28:24;4.20;;;2.00;;
72394;SDS011;60384;48.152;11.614;2022-07-04T13:31:24;3.60;;;1.93;;
72394;SDS011;60384;48.152;11.614;2022-07-04T13:34:24;3.00;;;1.70;;
72394;SDS011;60384;48.152;11.614;2022-07-04T13:37:25;3.53;;;2.03;;
72394;SDS011;60384;48.152;11.614;2022-07-04T13:40:25;3.27;;;1.83;;
72394;SDS011;60384;48.152;11.614;2022-07-04T13:43:26;5.03;;;1.93;;
72394;SDS011;60384;48.152;11.614;2022-07-04T13:46:28;4.13;;;2.05;;
72394;SDS011;60384;48.152;11.614;2022-07-04T13:49:28;3.42;;;2.10;;
72394;SDS011;60384;48.152;11.614;2022-07-04T13:52:29;4.07;;;2.03;;
72394;SDS011;60384;48.152;11.614;2022-07-04T13:55:29;4.23;;;2.00;;
72394;SDS011;60384;48.152;11.614;2022-07-04T13:58:30;3.95;;;2.13;;
72394;SDS011;60384;48.152;11.614;2022-07-04T14:01:31;3.45;;;2.10;;
72394;SDS011;60384;48.152;11.614;2022-07-04T14:04:31;3.57;;;2.03;;
72394;SDS011;60384;48.152;11.614;2022-07-04T14:07:32;2.67;;;1.75;;
72394;SDS011;60384;48.152;11.614;2022-07-04T14:10:33;4.93;;;2.10;;
72394;SDS011;60384;48.152;11.614;2022-07-04T14:13:34;3.60;;;2.07;;
72394;SDS011;60384;48.152;11.614;2022-07-04T14:16:34;4.23;;;2.40;;
72394;SDS011;60384;48.152;11.614;2022-07-04T14:19:34;3.17;;;2.00;;
72394;SDS011;60384;48.152;11.614;2022-07-04T14:22:35;4.87;;;1.93;;
72394;SDS011;60384;48.152;11.614;2022-07-04T14:25:37;4.72;;;1.95;;
72394;SDS011;60384;48.152;11.614;2022-07-04T14:28:38;5.70;;;2.35;;
72394;SDS011;60384;48.152;11.614;2022-07-04T14:31:39;2.65;;;1.83;;
72394;SDS011;60384;48.152;11.614;2022-07-04T14:34:39;7.55;;;2.20;;
72394;SDS011;60384;48.152;11.614;2022-07-04T14:37:39;4.50;;;1.90;;
72394;SDS011;60384;48.152;11.614;2022-07-04T14:40:40;4.03;;;2.00;;
72394;SDS011;60384;48.152;11.614;2022-07-04T14:43:44;3.85;;;2.20;;
72394;SDS011;60384;48.152;11.614;2022-07-04T14:46:44;2.63;;;1.83;;
72394;SDS011;60384;48.152;11.614;2022-07-04T14:49:45;4.50;;;2.13;;
72394;SDS011;60384;48.152;11.614;2022-07-04T14:52:45;3.80;;;1.90;;
72394;SDS011;60384;48.152;11.614;2022-07-04T14:55:45;3.93;;;2.00;;
72394;SDS011;60384;48.152;11.614;2022-07-04T14:58:46;3.70;;;1.80;;
72394;SDS011;60384;48.152;11.614;2022-07-04T15:01:47;3.28;;;2.10;;
72394;SDS011;60384;48.152;11.614;2022-07-04T15:04:47;5.27;;;2.30;;
72394;SDS011;60384;48.152;11.614;2022-07-04T15:07:47;3.57;;;1.97;;
72394;SDS011;60384;48.152;11.614;2022-07-04T15:10:48;4.22;;;2.20;;
72394;SDS011;60384;48.152;11.614;2022-07-04T15:13:49;3.13;;;2.20;;
72394;SDS011;60384;48.152;11.614;2022-07-04T15:16:49;3.13;;;1.93;;
72394;SDS011;60384;48.152;11.614;2022-07-04T15:19:50;4.97;;;2.33;;
72394;SDS011;60384;48.152;11.614;2022-07-04T15:23:08;4.15;;;2.08;;
72394;SDS011;60384;48.152;11.614;2022-07-04T15:26:27;5.88;;;2.40;;
72394;SDS011;60384;48.152;11.614;2022-07-04T15:29:28;5.93;;;2.17;;
72394;SDS011;60384;48.152;11.614;2022-07-04T15:32:28;4.78;;;1.98;;
72394;SDS011;60384;48.152;11.614;2022-07-04T15:35:29;10.57;;;2.37;;
72394;SDS011;60384;48.152;11.614;2022-07-04T15:38:29;7.90;;;2.23;;
72394;SDS011;60384;48.152;11.614;2022-07-04T15:41:29;5.00;;;2.10;;
72394;SDS011;60384;48.152;11.614;2022-07-04T15:44:30;5.10;;;2.23;;
72394;SDS011;60384;48.152;11.614;2022-07-04T15:47:30;4.37;;;2.00;;
72394;SDS011;60384;48.152;11.614;2022-07-04T15:50:30;4.93;;;2.20;;
72394;SDS011;60384;48.152;11.614;2022-07-04T15:53:31;6.18;;;2.40;;
72394;SDS011;60384;48.152;11.614;2022-07-04T15:56:32;4.43;;;2.40;;
72394;SDS011;60384;48.152;11.614;2022-07-04T15:59:32;5.50;;;2.17;;
72394;SDS011;60384;48.152;11.614;2022-07-04T16:02:32;4.17;;;2.20;;
72394;SDS011;60384;48.152;11.614;2022-07-04T16:05:33;3.83;;;2.00;;
72394;SDS011;60384;48.152;11.614;2022-07-04T16:08:33;2.93;;;1.80;;
72394;SDS011;60384;48.152;11.614;2022-07-04T16:11:34;5.03;;;2.10;;
72394;SDS011;60384;48.152;11.614;2022-07-04T16:14:34;4.73;;;2.03;;
72394;SDS011;60384;48.152;11.614;2022-07-04T16:17:35;4.93;;;2.40;;
72394;SDS011;60384;48.152;11.614;2022-07-04T16:20:35;6.03;;;2.20;;
72394;SDS011;60384;48.152;11.614;2022-07-04T16:23:36;4.40;;;2.07;;
72394;SDS011;60384;48.152;11.614;2022-07-04T16:26:36;4.23;;;2.10;;
72394;SDS011;60384;48.152;11.614;2022-07-04T16:29:37;4.17;;;2.13;;
72394;SDS011;60384;48.152;11.614;2022-07-04T16:32:37;4.93;;;2.10;;
72394;SDS011;60384;48.152;11.614;2022-07-04T16:35:38;4.75;;;2.17;;
72394;SDS011;60384;48.152;11.614;2022-07-04T16:38:38;5.87;;;2.33;;
72394;SDS011;60384;48.152;11.614;2022-07-04T16:41:39;5.13;;;2.03;;
72394;SDS011;60384;48.152;11.614;2022-07-04T16:44:39;4.13;;;2.20;;
72394;SDS011;60384;48.152;11.614;2022-07-04T16:47:40;4.67;;;2.50;;
72394;SDS011;60384;48.152;11.614;2022-07-04T16:50:40;6.13;;;2.53;;
72394;SDS011;60384;48.152;11.614;2022-07-04T16:53:40;9.63;;;2.73;;
72394;SDS011;60384;48.152;11.614;2022-07-04T16:56:41;4.50;;;2.37;;
72394;SDS011;60384;48.152;11.614;2022-07-04T16:59:41;7.80;;;2.13;;
72394;SDS011;60384;48.152;11.614;2022-07-04T17:02:42;7.63;;;2.87;;
72394;SDS011;60384;48.152;11.614;2022-07-04T17:05:42;6.27;;;3.30;;
72394;SDS011;60384;48.152;11.614;2022-07-04T17:08:42;6.03;;;2.40;;
72394;SDS011;60384;48.152;11.614;2022-07-04T17:11:43;3.40;;;2.10;;
72394;SDS011;60384;48.152;11.614;2022-07-04T17:14:44;3.73;;;2.20;;
72394;SDS011;60384;48.152;11.614;2022-07-04T17:17:44;8.50;;;2.43;;
72394;SDS011;60384;48.152;11.614;2022-07-04T17:20:45;5.90;;;2.35;;
72394;SDS011;60384;48.152;11.614;2022-07-04T17:23:45;4.60;;;2.20;;
72394;SDS011;60384;48.152;11.614;2022-07-04T17:26:46;5.73;;;2.60;;
72394;SDS011;60384;48.152;11.614;2022-07-04T17:29:46;4.57;;;2.37;;
72394;SDS011;60384;48.152;11.614;2022-07-04T17:32:47;9.57;;;2.60;;
72394;SDS011;60384;48.152;11.614;2022-07-04T17:35:47;4.67;;;2.30;;
72394;SDS011;60384;48.152;11.614;2022-07-04T17:38:47;6.10;;;2.50;;
72394;SDS011;60384;48.152;11.614;2022-07-04T17:41:48;4.47;;;2.63;;
72394;SDS011;60384;48.152;11.614;2022-07-04T17:44:48;4.70;;;2.40;;
72394;SDS011;60384;48.152;11.614;2022-07-04T17:47:49;6.53;;;2.57;;
72394;SDS011;60384;48.152;11.614;2022-07-04T17:50:49;7.13;;;3.10;;
72394;SDS011;60384;48.152;11.614;2022-07-04T17:53:50;5.83;;;2.30;;
72394;SDS011;60384;48.152;11.614;2022-07-04T17:56:50;5.17;;;2.70;;
72394;SDS011;60384;48.152;11.614;2022-07-04T17:59:50;3.73;;;2.20;;
72394;SDS011;60384;48.152;11.614;2022-07-04T18:02:51;6.30;;;2.63;;
72394;SDS011;60384;48.152;11.614;2022-07-04T18:05:51;5.30;;;2.60;;
72394;SDS011;60384;48.152;11.614;2022-07-04T18:08:52;5.07;;;2.33;;
72394;SDS011;60384;48.152;11.614;2022-07-04T18:11:52;7.40;;;2.70;;